Time;durP1;ratioP1;P1;durP2;ratioP2;P2;SDS_P1;SDS_P2;PMS_P1;PMS_P2;Temp;Humidity;BMP_temperature;BMP_pressure;BME280_temperature;BME280_humidity;BME280_pressure;Samples;Min_cycle;Max_cycle;Signal;HPM_P1;HPM_P2
2023/09/26 00:00:35;;;;;;;4.07;3.03;;;17.60;68.80;;;;;;5110248;28;20143;-73
2023/09/26 00:03:00;;;;;;;4.70;2.88;;;17.50;68.70;;;;;;5091366;28;20561;-73
2023/09/26 00:05:27;;;;;;;5.50;3.58;;;17.50;68.80;;;;;;5091681;28;20468;-73
2023/09/26 00:07:54;;;;;;;4.53;3.28;;;17.50;68.80;;;;;;5099807;28;20028;-73
2023/09/26 00:10:20;;;;;;;4.35;3.38;;;17.50;68.90;;;;;;5093897;28;20118;-73
2023/09/26 00:12:47;;;;;;;3.38;2.92;;;17.50;68.90;;;;;;5114541;28;20064;-73
2023/09/26 00:15:12;;;;;;;4.60;3.47;;;17.40;69.00;;;;;;5095827;28;20145;-73
2023/09/26 00:17:38;;;;;;;5.03;4.30;;;17.40;69.10;;;;;;5094877;28;20105;-73
2023/09/26 00:20:15;;;;;;;5.50;4.53;;;17.40;69.30;;;;;;5082484;28;20047;-73
2023/09/26 00:22:41;;;;;;;7.30;5.15;;;17.40;69.30;;;;;;5091446;28;20044;-73
2023/09/26 00:25:07;;;;;;;4.72;3.83;;;17.30;69.50;;;;;;5096006;28;20048;-73
2023/09/26 00:27:32;;;;;;;4.05;2.80;;;17.30;69.60;;;;;;5094428;28;20043;-73
2023/09/26 00:29:58;;;;;;;5.28;2.90;;;17.20;69.60;;;;;;5094311;28;20124;-73
2023/09/26 00:32:24;;;;;;;3.70;2.75;;;17.20;69.70;;;;;;5063615;28;20067;-73
2023/09/26 00:34:49;;;;;;;4.35;3.72;;;17.20;69.70;;;;;;5093126;28;20391;-73
2023/09/26 00:37:15;;;;;;;5.03;3.88;;;17.10;69.70;;;;;;5046616;28;20117;-73
2023/09/26 00:39:40;;;;;;;4.53;3.17;;;17.10;69.80;;;;;;5060717;28;20115;-73
2023/09/26 00:42:06;;;;;;;3.95;2.80;;;17.00;69.80;;;;;;5094193;28;20071;-73
2023/09/26 00:44:32;;;;;;;4.18;3.28;;;17.00;69.80;;;;;;5077889;28;20071;-73
2023/09/26 00:47:00;;;;;;;3.97;2.80;;;17.00;69.80;;;;;;5094338;28;20055;-73
2023/09/26 00:49:28;;;;;;;5.13;3.45;;;16.90;69.80;;;;;;5094415;28;20464;-73
2023/09/26 00:51:55;;;;;;;5.22;3.00;;;16.90;69.90;;;;;;5077372;28;20111;-73
2023/09/26 00:54:21;;;;;;;4.57;3.22;;;16.90;69.90;;;;;;5108330;28;20066;-73
2023/09/26 00:56:46;;;;;;;4.43;3.10;;;16.90;69.90;;;;;;5114064;28;20482;-73
2023/09/26 00:59:12;;;;;;;4.10;2.50;;;16.80;69.90;;;;;;5114362;28;20084;-73
2023/09/26 01:01:40;;;;;;;4.53;3.03;;;16.80;69.90;;;;;;5113993;28;20036;-73
2023/09/26 01:04:07;;;;;;;4.65;3.22;;;16.80;69.80;;;;;;5097597;28;20043;-73
2023/09/26 01:06:34;;;;;;;4.82;3.17;;;16.80;69.80;;;;;;5112782;28;20093;-73
2023/09/26 01:09:00;;;;;;;4.68;3.83;;;16.80;69.90;;;;;;5113912;28;20040;-73
2023/09/26 01:11:26;;;;;;;5.82;4.30;;;16.70;69.80;;;;;;5098753;28;20043;-73
2023/09/26 01:13:51;;;;;;;3.25;2.70;;;16.70;69.50;;;;;;5076654;28;20450;-73
2023/09/26 01:16:19;;;;;;;4.65;2.95;;;16.60;69.10;;;;;;5076797;28;20115;-73
2023/09/26 01:18:45;;;;;;;3.53;2.83;;;16.50;69.50;;;;;;5076848;28;20072;-73
2023/09/26 01:21:12;;;;;;;4.30;3.00;;;16.50;69.80;;;;;;5084336;28;20121;-73
2023/09/26 01:23:40;;;;;;;5.35;3.03;;;16.50;70.40;;;;;;5102801;28;20035;-73
2023/09/26 01:26:05;;;;;;;4.90;2.63;;;16.50;70.10;;;;;;5099136;28;20078;-73
2023/09/26 01:28:31;;;;;;;5.63;4.32;;;16.40;70.10;;;;;;5093567;28;20071;-73
2023/09/26 01:30:57;;;;;;;3.30;2.67;;;16.40;70.10;;;;;;5093241;28;20090;-73
2023/09/26 01:33:23;;;;;;;3.70;3.10;;;16.40;70.00;;;;;;5076115;28;20581;-73
2023/09/26 01:35:51;;;;;;;4.20;2.90;;;16.30;70.00;;;;;;5093528;28;20042;-73
2023/09/26 01:38:19;;;;;;;3.65;2.78;;;16.30;70.10;;;;;;5095008;28;20508;-73
2023/09/26 01:40:45;;;;;;;4.68;3.00;;;16.30;70.30;;;;;;5095818;28;20081;-73
2023/09/26 01:43:11;;;;;;;5.40;3.75;;;16.30;70.50;;;;;;5075709;28;20039;-73
2023/09/26 01:45:37;;;;;;;3.17;2.35;;;16.20;70.60;;;;;;5076166;28;20043;-73
2023/09/26 01:48:05;;;;;;;4.82;3.90;;;16.20;70.70;;;;;;5097689;28;20043;-73
2023/09/26 01:50:34;;;;;;;6.13;4.45;;;16.20;70.80;;;;;;5093375;28;20040;-73
2023/09/26 01:52:59;;;;;;;5.22;3.67;;;16.20;70.90;;;;;;5092777;28;20042;-73
2023/09/26 01:55:25;;;;;;;3.45;2.72;;;16.10;71.00;;;;;;5107461;28;20027;-73
2023/09/26 01:57:51;;;;;;;4.05;3.22;;;16.10;71.20;;;;;;5075525;28;20035;-73
2023/09/26 02:00:19;;;;;;;5.95;4.75;;;16.10;71.30;;;;;;5092610;28;20047;-73
2023/09/26 02:02:46;;;;;;;6.00;5.30;;;16.10;71.80;;;;;;5092816;28;20119;-73
2023/09/26 02:05:14;;;;;;;7.50;6.20;;;16.00;72.00;;;;;;5092570;28;20044;-72
2023/09/26 02:07:40;;;;;;;7.15;5.93;;;16.00;72.40;;;;;;5092708;28;20134;-73
2023/09/26 02:10:06;;;;;;;8.25;6.68;;;16.00;72.60;;;;;;5093767;28;20518;-73
2023/09/26 02:12:34;;;;;;;6.53;5.65;;;16.00;72.90;;;;;;5092520;28;20093;-73
2023/09/26 02:15:04;;;;;;;8.38;6.05;;;15.90;73.10;;;;;;5092327;28;20048;-73
2023/09/26 02:17:33;;;;;;;5.90;5.20;;;15.90;73.20;;;;;;5092583;28;20050;-73
2023/09/26 02:19:59;;;;;;;5.03;4.13;;;15.90;73.90;;;;;;5075961;28;20060;-73
2023/09/26 02:22:25;;;;;;;5.90;4.93;;;15.80;73.50;;;;;;5092162;28;20127;-73
2023/09/26 02:24:52;;;;;;;5.45;3.63;;;15.80;73.50;;;;;;5087716;28;20122;-73
2023/09/26 02:27:17;;;;;;;4.72;4.13;;;15.80;73.70;;;;;;5084971;28;20123;-73
2023/09/26 02:29:44;;;;;;;5.38;3.03;;;15.70;73.70;;;;;;5093574;28;20075;-73
2023/09/26 02:32:10;;;;;;;3.80;3.17;;;15.70;73.70;;;;;;5095489;28;20043;-73
2023/09/26 02:34:36;;;;;;;3.75;3.30;;;15.70;73.70;;;;;;5112070;28;20050;-73
2023/09/26 02:37:02;;;;;;;5.60;5.05;;;15.70;73.70;;;;;;5090913;28;20040;-73
2023/09/26 02:39:28;;;;;;;9.68;7.25;;;15.70;73.70;;;;;;5094948;28;20035;-73
2023/09/26 02:41:53;;;;;;;7.28;6.45;;;15.70;73.80;;;;;;5086133;28;20074;-73
2023/09/26 02:44:19;;;;;;;8.60;7.70;;;15.70;73.90;;;;;;5067859;28;20068;-73
2023/09/26 02:46:45;;;;;;;6.22;4.13;;;15.70;74.10;;;;;;5090454;28;20035;-73
2023/09/26 02:49:10;;;;;;;6.28;5.30;;;15.70;74.10;;;;;;5111384;28;20070;-73
2023/09/26 02:51:36;;;;;;;7.35;5.80;;;15.70;74.10;;;;;;5096954;28;20035;-73
2023/09/26 02:54:02;;;;;;;9.07;7.20;;;15.60;74.10;;;;;;5095100;28;20403;-73
2023/09/26 02:56:27;;;;;;;6.40;5.60;;;15.60;74.10;;;;;;5112031;28;20110;-73
2023/09/26 02:58:53;;;;;;;7.50;6.38;;;15.70;74.20;;;;;;5094597;28;20547;-73
2023/09/26 03:01:20;;;;;;;8.15;7.13;;;15.60;74.10;;;;;;5095659;28;20059;-73
2023/09/26 03:03:46;;;;;;;6.72;6.03;;;15.70;74.20;;;;;;5074886;28;20471;-73
2023/09/26 03:06:12;;;;;;;10.90;7.18;;;15.60;74.10;;;;;;5107130;28;20039;-73
2023/09/26 03:08:37;;;;;;;8.20;6.78;;;15.60;74.10;;;;;;5112267;28;20043;-73
2023/09/26 03:11:03;;;;;;;5.82;5.22;;;15.60;74.10;;;;;;5093540;28;20127;-73
2023/09/26 03:13:35;;;;;;;4.80;3.95;;;15.60;74.20;;;;;;5088209;28;20035;-73
2023/09/26 03:16:08;;;;;;;4.43;3.58;;;15.60;74.20;;;;;;5110152;28;20043;-73
2023/09/26 03:18:35;;;;;;;4.72;2.85;;;15.60;74.10;;;;;;5106172;28;20535;-73
2023/09/26 03:21:05;;;;;;;4.07;3.40;;;15.60;74.10;;;;;;5074582;28;20091;-73
2023/09/26 03:23:32;;;;;;;7.63;5.60;;;15.60;74.00;;;;;;5091479;28;20040;-73
2023/09/26 03:25:58;;;;;;;9.15;7.80;;;15.60;74.00;;;;;;5091557;28;20048;-73
2023/09/26 03:28:24;;;;;;;6.65;5.47;;;15.50;74.30;;;;;;5074582;28;20036;-73
2023/09/26 03:30:50;;;;;;;9.35;7.45;;;15.50;73.90;;;;;;5091547;28;20471;-73
2023/09/26 03:33:16;;;;;;;4.65;3.80;;;15.50;73.80;;;;;;5107034;28;20092;-73
2023/09/26 03:35:41;;;;;;;6.00;3.97;;;15.50;73.80;;;;;;5092547;28;20042;-73
2023/09/26 03:38:07;;;;;;;9.23;6.82;;;15.50;73.70;;;;;;5074704;28;20127;-73
2023/09/26 03:40:33;;;;;;;10.52;8.35;;;15.50;73.70;;;;;;5082569;28;20061;-73
2023/09/26 03:42:59;;;;;;;11.30;10.13;;;15.50;73.60;;;;;;5077943;28;20043;-73
2023/09/26 03:45:24;;;;;;;10.85;9.75;;;15.50;73.70;;;;;;5110362;28;20043;-73
2023/09/26 03:47:51;;;;;;;10.68;9.57;;;15.50;73.80;;;;;;5095306;28;20043;-73
2023/09/26 03:50:17;;;;;;;12.50;9.93;;;15.50;73.80;;;;;;5112321;28;20047;-73
2023/09/26 03:52:42;;;;;;;10.85;8.30;;;15.50;73.90;;;;;;5095011;28;20047;-73
2023/09/26 03:55:08;;;;;;;10.18;9.10;;;15.40;73.90;;;;;;5094856;27;20044;-73
2023/09/26 03:57:34;;;;;;;11.77;9.45;;;15.40;74.00;;;;;;5095280;28;20040;-73
2023/09/26 04:00:12;;;;;;;9.77;8.77;;;15.30;73.90;;;;;;5078888;28;20036;-73
2023/09/26 04:02:38;;;;;;;12.13;10.93;;;15.40;74.10;;;;;;5096378;28;20036;-73
2023/09/26 04:05:05;;;;;;;13.43;11.35;;;15.30;74.10;;;;;;5061755;28;20401;-73
2023/09/26 04:07:31;;;;;;;12.55;11.25;;;15.20;74.00;;;;;;5081513;28;20040;-73
2023/09/26 04:09:57;;;;;;;11.15;10.07;;;15.20;74.10;;;;;;5095235;28;20048;-73
2023/09/26 04:12:23;;;;;;;10.15;9.15;;;15.20;74.10;;;;;;5078179;28;20063;-73
2023/09/26 04:14:48;;;;;;;10.50;9.18;;;15.20;74.20;;;;;;5106615;28;20478;-73
2023/09/26 04:17:14;;;;;;;8.48;7.55;;;15.10;74.20;;;;;;5115185;28;20031;-73
2023/09/26 04:19:40;;;;;;;7.53;5.70;;;15.10;74.30;;;;;;5103364;28;20047;-73
2023/09/26 04:22:05;;;;;;;6.85;5.43;;;15.10;74.30;;;;;;5097616;28;20097;-73
2023/09/26 04:24:31;;;;;;;7.55;6.38;;;15.10;74.40;;;;;;5097672;28;20042;-73
2023/09/26 04:26:56;;;;;;;5.40;4.85;;;15.10;74.50;;;;;;5111539;28;20127;-73
2023/09/26 04:29:22;;;;;;;6.38;5.65;;;15.10;74.50;;;;;;5094509;28;20047;-73
2023/09/26 04:31:48;;;;;;;8.93;8.02;;;15.10;74.50;;;;;;5077521;28;20040;-73
2023/09/26 04:34:13;;;;;;;8.20;6.90;;;15.10;74.40;;;;;;5077286;28;20097;-73
2023/09/26 04:36:39;;;;;;;12.20;10.95;;;15.10;74.20;;;;;;5078848;28;20093;-73
2023/09/26 04:39:05;;;;;;;12.63;11.32;;;15.00;74.10;;;;;;5077720;28;20047;-73
2023/09/26 04:41:30;;;;;;;13.20;11.63;;;15.00;74.00;;;;;;5093251;28;20119;-73
2023/09/26 04:43:56;;;;;;;13.73;12.25;;;15.00;74.00;;;;;;5114692;28;20050;-73
2023/09/26 04:46:22;;;;;;;13.13;11.75;;;15.00;74.10;;;;;;5097620;28;20035;-73
2023/09/26 04:48:47;;;;;;;13.35;12.05;;;15.00;74.20;;;;;;5097572;28;20096;-75
2023/09/26 04:51:14;;;;;;;12.88;11.48;;;14.90;74.20;;;;;;5106632;28;20383;-76
2023/09/26 04:53:41;;;;;;;13.35;11.98;;;14.90;74.40;;;;;;5089900;28;20473;-76
2023/09/26 04:56:07;;;;;;;14.90;13.02;;;14.90;74.50;;;;;;5096585;28;20535;-76
2023/09/26 04:58:33;;;;;;;14.43;12.93;;;14.80;74.50;;;;;;5094120;28;20388;-76
2023/09/26 05:01:02;;;;;;;15.20;13.60;;;14.80;74.50;;;;;;5088438;28;20538;-76
2023/09/26 05:03:28;;;;;;;13.55;12.15;;;14.80;74.60;;;;;;5097260;28;20042;-76
2023/09/26 05:05:54;;;;;;;14.82;13.32;;;14.80;74.70;;;;;;5086067;28;20083;-76
2023/09/26 05:08:20;;;;;;;14.85;13.30;;;14.70;74.60;;;;;;5071650;28;20066;-76
2023/09/26 05:10:48;;;;;;;13.75;12.13;;;14.70;74.70;;;;;;5096283;28;20505;-76
2023/09/26 05:13:15;;;;;;;14.35;12.55;;;14.70;74.70;;;;;;5113774;28;20076;-76
2023/09/26 05:15:40;;;;;;;14.10;12.60;;;14.60;74.70;;;;;;5078124;28;20128;-77
2023/09/26 05:18:06;;;;;;;16.58;14.20;;;14.60;74.70;;;;;;5093578;28;20463;-75
2023/09/26 05:20:32;;;;;;;16.77;13.55;;;14.60;74.70;;;;;;5085274;28;20048;-76
2023/09/26 05:23:00;;;;;;;16.45;13.48;;;14.50;74.70;;;;;;5093347;28;20070;-76
2023/09/26 05:25:26;;;;;;;15.40;13.77;;;14.50;74.80;;;;;;5072879;28;20127;-76
2023/09/26 05:27:52;;;;;;;13.55;12.25;;;14.40;74.90;;;;;;5111627;28;20039;-76
2023/09/26 05:30:17;;;;;;;13.70;12.35;;;14.40;75.00;;;;;;5076535;28;20051;-73
2023/09/26 05:32:43;;;;;;;15.23;13.15;;;14.40;75.10;;;;;;5086837;28;20044;-73
2023/09/26 05:35:10;;;;;;;14.35;12.95;;;14.30;75.10;;;;;;5102842;28;20039;-73
2023/09/26 05:37:36;;;;;;;14.77;12.75;;;14.30;75.20;;;;;;5111828;28;20122;-72
2023/09/26 05:40:08;;;;;;;14.63;12.82;;;14.30;75.30;;;;;;5111570;28;20036;-73
2023/09/26 05:42:39;;;;;;;14.80;13.20;;;14.20;75.30;;;;;;5113508;28;20044;-73
2023/09/26 05:45:09;;;;;;;10.60;9.45;;;14.30;75.90;;;;;;5102320;28;20043;-73
2023/09/26 05:47:35;;;;;;;12.02;10.27;;;14.20;75.50;;;;;;5093241;28;20117;-73
2023/09/26 05:50:03;;;;;;;8.55;7.60;;;14.20;75.60;;;;;;5081738;28;20482;-72
2023/09/26 05:52:29;;;;;;;18.52;13.10;;;14.20;75.80;;;;;;5093342;28;20040;-73
2023/09/26 05:54:55;;;;;;;12.65;11.35;;;14.20;75.90;;;;;;5098303;28;20552;-72
2023/09/26 05:57:20;;;;;;;15.43;13.40;;;14.20;75.80;;;;;;5096257;28;20458;-73
2023/09/26 05:59:46;;;;;;;12.88;11.57;;;14.20;75.80;;;;;;5087090;28;20032;-72
2023/09/26 06:02:13;;;;;;;13.55;12.15;;;14.20;75.80;;;;;;5079362;28;20122;-72
2023/09/26 06:04:43;;;;;;;14.20;12.73;;;14.20;75.80;;;;;;5113069;28;20044;-73
2023/09/26 06:07:09;;;;;;;16.88;12.60;;;14.30;76.00;;;;;;5095946;28;20039;-73
2023/09/26 06:09:36;;;;;;;14.55;13.02;;;14.30;75.90;;;;;;5078490;28;20071;-73
2023/09/26 06:12:03;;;;;;;15.05;13.45;;;14.30;75.80;;;;;;5102106;28;20040;-73
2023/09/26 06:14:31;;;;;;;17.50;13.38;;;14.30;75.70;;;;;;5092314;28;20648;-73
2023/09/26 06:16:56;;;;;;;13.98;12.25;;;14.30;75.60;;;;;;5075509;28;20040;-73
2023/09/26 06:19:22;;;;;;;13.32;12.02;;;14.30;75.60;;;;;;5092232;28;20036;-73
2023/09/26 06:21:48;;;;;;;19.20;13.32;;;14.30;75.60;;;;;;5075453;28;20127;-73
2023/09/26 06:24:13;;;;;;;13.75;12.38;;;14.30;75.70;;;;;;5092493;28;20051;-73
2023/09/26 06:26:39;;;;;;;14.40;12.65;;;14.30;75.60;;;;;;5092282;28;20036;-73
2023/09/26 06:29:05;;;;;;;13.52;12.07;;;14.40;75.60;;;;;;5093249;28;20040;-73
2023/09/26 06:31:30;;;;;;;14.50;11.82;;;14.40;75.60;;;;;;5075560;28;20043;-73
2023/09/26 06:34:00;;;;;;;15.20;13.68;;;14.40;75.50;;;;;;5058642;28;20051;-73
2023/09/26 06:36:30;;;;;;;14.13;12.73;;;14.40;75.50;;;;;;5059192;28;20118;-73
2023/09/26 06:38:56;;;;;;;13.55;11.95;;;14.40;75.50;;;;;;5092192;28;20155;-73
2023/09/26 06:41:22;;;;;;;13.68;10.80;;;14.40;75.50;;;;;;5092099;28;20036;-72
2023/09/26 06:43:48;;;;;;;14.43;13.02;;;14.40;75.50;;;;;;5091929;28;20040;-73
2023/09/26 06:46:13;;;;;;;12.25;10.95;;;14.40;75.60;;;;;;5094042;28;20036;-73
2023/09/26 06:48:41;;;;;;;13.88;12.23;;;14.40;75.60;;;;;;5112440;28;20048;-77
2023/09/26 06:51:08;;;;;;;15.50;13.07;;;14.50;75.70;;;;;;5112878;28;20122;-77
2023/09/26 06:53:35;;;;;;;13.60;12.18;;;14.50;75.60;;;;;;5112518;28;20089;-77
2023/09/26 06:56:08;;;;;;;14.23;12.35;;;14.50;75.80;;;;;;5078994;28;20043;-77
2023/09/26 06:58:35;;;;;;;14.13;12.63;;;14.50;76.00;;;;;;5095481;28;20040;-77
2023/09/26 07:01:00;;;;;;;15.02;12.98;;;14.60;76.00;;;;;;5089340;28;20040;-77
2023/09/26 07:03:27;;;;;;;15.70;12.93;;;14.60;75.90;;;;;;5075124;28;20043;-77
2023/09/26 07:05:54;;;;;;;14.20;12.18;;;14.60;76.20;;;;;;5092470;28;20382;-77
2023/09/26 07:08:20;;;;;;;13.30;11.90;;;14.70;75.90;;;;;;5075105;28;20032;-77
2023/09/26 07:10:46;;;;;;;12.68;11.38;;;14.70;75.90;;;;;;5092127;28;20039;-77
2023/09/26 07:13:13;;;;;;;15.90;12.65;;;14.70;75.80;;;;;;5075117;28;20047;-77
2023/09/26 07:15:40;;;;;;;14.23;11.65;;;14.80;75.70;;;;;;5092298;28;20388;-77
2023/09/26 07:18:09;;;;;;;13.55;11.25;;;14.80;75.80;;;;;;5104010;28;20035;-77
2023/09/26 07:20:36;;;;;;;12.43;11.15;;;14.80;75.80;;;;;;5095784;28;20052;-77
2023/09/26 07:23:03;;;;;;;15.75;11.85;;;14.90;76.00;;;;;;5099713;28;20390;-77
2023/09/26 07:25:29;;;;;;;13.90;11.30;;;14.90;76.00;;;;;;5099352;28;20048;-77
2023/09/26 07:27:55;;;;;;;12.68;11.48;;;15.00;76.00;;;;;;5116573;28;20040;-77
2023/09/26 07:30:21;;;;;;;11.55;10.05;;;15.00;76.10;;;;;;5116215;28;20050;-77
2023/09/26 07:32:47;;;;;;;11.82;9.50;;;15.10;76.10;;;;;;5099408;28;20040;-77
2023/09/26 07:35:12;;;;;;;13.70;11.55;;;15.20;76.20;;;;;;5082403;28;20084;-77
2023/09/26 07:37:38;;;;;;;14.18;10.18;;;15.20;76.20;;;;;;5078686;28;20067;-76
2023/09/26 07:40:08;;;;;;;12.85;10.48;;;15.30;76.30;;;;;;5095703;28;20123;-76
2023/09/26 07:42:35;;;;;;;14.15;10.18;;;15.40;75.90;;;;;;5095730;28;20083;-77
2023/09/26 07:45:01;;;;;;;12.52;11.00;;;15.50;75.60;;;;;;5079095;28;20044;-77
2023/09/26 07:47:27;;;;;;;12.18;10.65;;;15.50;75.20;;;;;;5079199;28;20039;-77
2023/09/26 07:49:52;;;;;;;10.40;9.23;;;15.60;74.80;;;;;;5097911;28;20043;-77
2023/09/26 07:52:19;;;;;;;13.00;10.43;;;15.70;74.70;;;;;;5098801;28;20549;-77
2023/09/26 07:54:45;;;;;;;12.43;9.63;;;15.70;74.70;;;;;;5082055;28;20497;-77
2023/09/26 07:57:10;;;;;;;12.20;10.18;;;15.80;75.10;;;;;;5082145;28;20036;-77
2023/09/26 07:59:37;;;;;;;11.55;10.18;;;15.90;74.50;;;;;;5098988;28;20471;-77
2023/09/26 08:02:03;;;;;;;11.20;10.10;;;15.90;74.20;;;;;;5115838;28;20210;-76
2023/09/26 08:04:29;;;;;;;12.52;10.93;;;16.00;73.90;;;;;;5114982;28;20093;-76
2023/09/26 08:06:54;;;;;;;12.02;10.45;;;16.10;74.20;;;;;;5097744;28;20122;-75
2023/09/26 08:09:20;;;;;;;14.10;10.70;;;16.10;73.70;;;;;;5115117;28;20508;-77
2023/09/26 08:11:46;;;;;;;12.55;11.20;;;16.20;73.80;;;;;;5098595;28;20071;-77
2023/09/26 08:14:12;;;;;;;13.18;10.63;;;16.30;73.90;;;;;;5098629;28;20035;-77
2023/09/26 08:16:37;;;;;;;12.27;11.05;;;16.30;74.10;;;;;;5097534;28;20498;-77
2023/09/26 08:19:03;;;;;;;14.70;11.82;;;16.40;73.50;;;;;;5098257;28;20032;-77
2023/09/26 08:21:29;;;;;;;12.73;10.80;;;16.40;73.30;;;;;;5083546;28;20051;-77
2023/09/26 08:23:56;;;;;;;12.10;10.32;;;16.50;73.10;;;;;;5094946;28;20052;-77
2023/09/26 08:26:22;;;;;;;12.55;10.00;;;16.50;73.10;;;;;;5078397;28;20106;-77
2023/09/26 08:28:47;;;;;;;10.93;9.80;;;16.60;73.10;;;;;;5077926;28;20075;-77
2023/09/26 08:31:17;;;;;;;13.25;10.50;;;16.60;73.00;;;;;;5078056;28;20154;-77
2023/09/26 08:33:44;;;;;;;11.95;10.23;;;16.70;73.00;;;;;;5094112;28;20044;-77
2023/09/26 08:36:17;;;;;;;16.08;11.20;;;16.80;73.10;;;;;;5078001;28;20040;-77
2023/09/26 08:38:43;;;;;;;11.20;10.10;;;16.80;72.10;;;;;;5095684;28;20487;-77
2023/09/26 08:41:10;;;;;;;13.57;9.88;;;16.90;72.10;;;;;;5094586;28;20040;-77
2023/09/26 08:43:36;;;;;;;12.77;10.93;;;16.90;72.30;;;;;;5094769;28;20368;-77
2023/09/26 08:46:04;;;;;;;12.30;10.90;;;16.90;72.30;;;;;;5094568;28;20081;-77
2023/09/26 08:48:30;;;;;;;12.20;10.07;;;17.00;72.10;;;;;;5094957;28;20438;-77
2023/09/26 08:50:56;;;;;;;12.43;10.75;;;17.00;71.90;;;;;;5097720;28;20051;-77
2023/09/26 08:53:21;;;;;;;12.30;10.50;;;17.00;71.80;;;;;;5095290;28;20045;-77
2023/09/26 08:55:49;;;;;;;13.18;10.02;;;17.10;71.70;;;;;;5078720;28;20178;-77
2023/09/26 08:58:16;;;;;;;11.38;9.77;;;17.10;71.60;;;;;;5077697;28;20040;-76
2023/09/26 09:00:44;;;;;;;14.82;9.63;;;17.10;71.60;;;;;;5094111;28;20119;-76
2023/09/26 09:03:10;;;;;;;10.93;9.55;;;17.10;71.50;;;;;;5077312;28;20501;-77
2023/09/26 09:05:35;;;;;;;10.90;8.98;;;17.20;71.40;;;;;;5077067;28;20045;-77
2023/09/26 09:08:01;;;;;;;10.52;9.25;;;17.30;71.20;;;;;;5094087;28;20047;-77
2023/09/26 09:10:27;;;;;;;11.27;9.45;;;17.40;71.30;;;;;;5077513;28;20048;-76
2023/09/26 09:13:04;;;;;;;10.43;9.43;;;17.50;71.10;;;;;;5077141;28;20059;-77
2023/09/26 09:15:30;;;;;;;11.82;8.52;;;17.70;71.00;;;;;;5076858;28;20040;-76
2023/09/26 09:17:57;;;;;;;11.18;9.13;;;17.80;70.10;;;;;;5097274;28;20038;-76
2023/09/26 09:20:35;;;;;;;10.82;8.18;;;17.90;69.60;;;;;;5097061;28;20059;-77
2023/09/26 09:23:02;;;;;;;10.63;8.50;;;18.10;69.40;;;;;;5080307;28;20047;-77
2023/09/26 09:25:36;;;;;;;9.77;8.18;;;18.10;69.20;;;;;;5114080;28;20101;-77
2023/09/26 09:28:03;;;;;;;11.68;9.25;;;18.30;69.40;;;;;;5112493;28;20141;-73
2023/09/26 09:30:29;;;;;;;10.57;8.35;;;18.40;69.00;;;;;;5059733;28;20044;-72
2023/09/26 09:32:56;;;;;;;14.25;8.98;;;18.50;68.30;;;;;;5093383;28;20075;-73
2023/09/26 09:35:22;;;;;;;11.82;8.70;;;18.60;68.00;;;;;;5093274;28;20083;-72
2023/09/26 09:37:50;;;;;;;10.60;7.90;;;18.60;67.60;;;;;;5076544;28;20036;-72
2023/09/26 09:40:20;;;;;;;9.65;7.65;;;18.70;67.50;;;;;;5093327;28;20071;-73
2023/09/26 09:42:50;;;;;;;12.70;8.68;;;18.80;67.20;;;;;;5094015;28;20043;-73
2023/09/26 09:45:19;;;;;;;11.55;8.48;;;18.80;67.00;;;;;;5095758;28;20097;-72
2023/09/26 09:47:46;;;;;;;11.38;8.13;;;18.90;66.90;;;;;;5113678;28;20075;-73
2023/09/26 09:50:13;;;;;;;10.13;6.93;;;18.90;66.60;;;;;;5113409;28;20047;-73
2023/09/26 09:52:44;;;;;;;8.70;7.43;;;19.00;66.60;;;;;;5096268;28;20083;-72
2023/09/26 09:55:19;;;;;;;8.95;6.95;;;19.10;66.70;;;;;;5113188;28;20039;-73
2023/09/26 09:57:49;;;;;;;9.60;7.63;;;19.10;66.30;;;;;;5096222;28;20035;-73
2023/09/26 10:00:16;;;;;;;11.30;7.43;;;19.20;65.20;;;;;;5094626;28;20066;-73
2023/09/26 10:02:45;;;;;;;9.77;7.05;;;19.20;64.70;;;;;;5113148;28;20123;-73
2023/09/26 10:05:12;;;;;;;11.48;7.20;;;19.30;64.50;;;;;;5096542;28;20126;-73
2023/09/26 10:07:43;;;;;;;12.13;7.07;;;19.30;64.60;;;;;;5079392;28;20082;-73
2023/09/26 10:10:11;;;;;;;9.65;6.38;;;19.30;64.40;;;;;;5112985;28;20046;-73
2023/09/26 10:12:40;;;;;;;8.60;7.00;;;19.40;64.70;;;;;;5112790;28;20135;-73
2023/09/26 10:15:13;;;;;;;10.63;6.85;;;19.40;65.20;;;;;;5110987;28;20126;-73
2023/09/26 10:17:45;;;;;;;8.70;6.45;;;19.50;64.70;;;;;;5112949;28;20100;-73
2023/09/26 10:20:12;;;;;;;10.75;6.88;;;19.60;63.80;;;;;;5112325;28;20051;-73
2023/09/26 10:22:44;;;;;;;10.90;6.40;;;19.60;63.70;;;;;;5112992;28;20039;-78
2023/09/26 10:25:19;;;;;;;10.52;7.07;;;19.70;63.70;;;;;;5078831;28;20165;-78
2023/09/26 10:27:50;;;;;;;10.25;6.60;;;19.70;62.70;;;;;;5105528;28;20107;-73
2023/09/26 10:30:18;;;;;;;10.85;7.05;;;19.70;62.60;;;;;;5081023;28;20027;-73
2023/09/26 10:32:44;;;;;;;10.80;7.38;;;19.80;62.30;;;;;;5097515;28;20036;-73
2023/09/26 10:35:13;;;;;;;8.95;7.43;;;19.80;62.40;;;;;;5099464;28;20036;-73
2023/09/26 10:37:45;;;;;;;10.32;7.43;;;19.80;62.40;;;;;;5083226;28;20114;-73
2023/09/26 10:40:17;;;;;;;9.60;6.88;;;19.90;62.50;;;;;;5083447;28;20055;-73
2023/09/26 10:42:45;;;;;;;9.40;7.55;;;19.90;62.00;;;;;;5079788;28;20043;-72
2023/09/26 10:45:12;;;;;;;9.85;7.28;;;19.90;61.80;;;;;;5098967;28;20441;-72
2023/09/26 10:47:40;;;;;;;10.75;7.75;;;20.00;61.80;;;;;;5083017;28;20035;-72
2023/09/26 10:50:14;;;;;;;8.73;6.90;;;20.00;60.90;;;;;;5098200;28;20054;-73
2023/09/26 10:52:49;;;;;;;12.05;7.40;;;20.00;60.90;;;;;;5097594;28;20162;-73
2023/09/26 10:55:20;;;;;;;10.65;7.60;;;20.00;61.30;;;;;;5083337;28;20469;-72
2023/09/26 10:57:46;;;;;;;10.75;7.60;;;20.10;61.30;;;;;;5098818;28;20036;-73
2023/09/26 11:00:13;;;;;;;7.55;6.35;;;20.10;61.70;;;;;;5083528;28;20047;-73
2023/09/26 11:02:41;;;;;;;8.55;6.80;;;20.20;61.70;;;;;;5081549;28;20114;-72
2023/09/26 11:05:08;;;;;;;9.82;7.05;;;20.20;61.20;;;;;;5097827;28;20050;-73
2023/09/26 11:07:35;;;;;;;10.15;7.32;;;20.20;61.10;;;;;;5101449;28;20043;-72
2023/09/26 11:10:03;;;;;;;9.73;7.32;;;20.30;61.00;;;;;;5113451;28;20036;-73
2023/09/26 11:12:30;;;;;;;12.00;7.70;;;20.30;61.00;;;;;;5082529;28;20424;-72
2023/09/26 11:14:56;;;;;;;10.70;7.55;;;20.40;61.10;;;;;;5082377;28;20050;-73
2023/09/26 11:17:23;;;;;;;8.50;6.65;;;20.40;61.30;;;;;;5101660;28;20123;-73
2023/09/26 11:19:51;;;;;;;9.48;7.60;;;20.40;62.00;;;;;;5097186;28;20123;-73
2023/09/26 11:22:17;;;;;;;8.45;6.72;;;20.40;62.40;;;;;;5100624;28;20432;-73
2023/09/26 11:24:42;;;;;;;9.38;7.30;;;20.50;62.50;;;;;;5098310;28;20040;-73
2023/09/26 11:27:08;;;;;;;10.27;7.50;;;20.50;61.80;;;;;;5100940;28;20039;-73
2023/09/26 11:29:35;;;;;;;10.43;7.28;;;20.50;61.40;;;;;;5070797;28;20035;-73
2023/09/26 11:32:03;;;;;;;11.00;7.75;;;20.50;61.30;;;;;;5080623;28;20046;-73
2023/09/26 11:34:29;;;;;;;10.25;7.40;;;20.60;61.00;;;;;;5097534;28;20055;-72
2023/09/26 11:36:55;;;;;;;12.90;8.52;;;20.60;61.60;;;;;;5102671;28;20031;-77
2023/09/26 11:39:23;;;;;;;11.07;7.60;;;20.60;61.70;;;;;;5085225;28;20031;-77
2023/09/26 11:42:02;;;;;;;10.13;7.85;;;20.60;61.40;;;;;;5101294;28;20047;-77
2023/09/26 11:44:27;;;;;;;11.00;7.90;;;20.60;61.30;;;;;;5105635;28;20100;-77
2023/09/26 11:46:53;;;;;;;10.93;8.35;;;20.60;61.60;;;;;;5099497;28;20044;-77
2023/09/26 11:49:19;;;;;;;15.93;8.70;;;20.60;61.90;;;;;;5104607;28;20107;-77
2023/09/26 11:51:47;;;;;;;10.23;7.25;;;20.70;61.90;;;;;;5083151;28;20378;-77
2023/09/26 11:54:13;;;;;;;9.77;8.25;;;20.70;61.80;;;;;;5101165;28;20051;-78
2023/09/26 11:56:44;;;;;;;9.57;7.30;;;20.70;62.20;;;;;;5100097;28;20039;-78
2023/09/26 11:59:10;;;;;;;12.32;7.70;;;20.70;62.10;;;;;;5085203;28;20143;-77
2023/09/26 12:01:36;;;;;;;10.57;7.82;;;20.80;62.20;;;;;;5085794;28;20071;-78
2023/09/26 12:04:05;;;;;;;10.23;8.10;;;20.80;62.00;;;;;;5080612;28;20082;-77
2023/09/26 12:06:33;;;;;;;9.48;7.70;;;20.90;61.90;;;;;;5105080;28;20039;-78
2023/09/26 12:08:59;;;;;;;9.15;7.68;;;20.90;62.50;;;;;;5107591;28;20096;-78
2023/09/26 12:11:25;;;;;;;11.32;8.68;;;21.00;62.50;;;;;;5079898;28;20115;-78
2023/09/26 12:13:51;;;;;;;9.35;7.97;;;21.00;62.70;;;;;;5078277;28;20125;-78
2023/09/26 12:16:16;;;;;;;11.02;8.15;;;21.10;62.10;;;;;;5078295;28;20036;-78
2023/09/26 12:18:42;;;;;;;9.95;7.63;;;21.10;61.70;;;;;;5078467;28;20036;-78
2023/09/26 12:21:08;;;;;;;10.07;7.78;;;21.20;61.50;;;;;;5078223;28;20074;-78
2023/09/26 12:23:33;;;;;;;12.13;7.97;;;21.20;61.10;;;;;;5095089;28;20050;-78
2023/09/26 12:25:59;;;;;;;11.75;8.88;;;21.30;61.00;;;;;;5094999;28;20035;-78
2023/09/26 12:28:25;;;;;;;9.40;8.02;;;21.30;60.80;;;;;;5095350;28;20040;-78
2023/09/26 12:30:52;;;;;;;9.73;8.13;;;21.30;61.10;;;;;;5078316;28;20036;-78
2023/09/26 12:33:18;;;;;;;9.60;7.68;;;21.40;61.20;;;;;;5094786;28;20040;-78
2023/09/26 12:35:44;;;;;;;10.18;8.13;;;21.30;60.80;;;;;;5094919;28;20509;-78